createdAt,value
2017-09-01T00:00:42.253Z,18.35
2017-09-01T00:01:51.087Z,18.29
2017-09-01T00:02:59.913Z,18.27
2017-09-01T00:04:08.748Z,18.3
2017-09-01T00:05:17.581Z,18.27
2017-09-01T00:06:26.417Z,18.25
2017-09-01T00:07:35.245Z,18.27
2017-09-01T00:08:44.070Z,18.32
2017-09-01T00:09:52.908Z,18.27
2017-09-01T00:11:01.739Z,18.21
2017-09-01T00:12:10.570Z,18.15
2017-09-01T00:13:19.399Z,18.11
2017-09-01T00:14:28.237Z,18.11
2017-09-01T00:15:37.065Z,18.18
2017-09-01T00:16:45.899Z,18.11
2017-09-01T00:17:54.733Z,18.11
2017-09-01T00:19:03.559Z,18.07
2017-09-01T00:20:12.386Z,18.05
2017-09-01T00:21:21.218Z,18.07
2017-09-01T00:22:30.050Z,18
2017-09-01T00:23:38.889Z,17.96
2017-09-01T00:24:47.719Z,18
2017-09-01T00:25:56.546Z,17.97
2017-09-01T00:27:05.376Z,17.92
2017-09-01T00:28:14.208Z,17.96
2017-09-01T00:29:23.034Z,17.99
2017-09-01T00:30:31.866Z,17.97
2017-09-01T00:31:40.693Z,17.96
2017-09-01T00:32:49.525Z,17.95
2017-09-01T00:33:58.351Z,17.95
2017-09-01T00:35:07.179Z,17.84
2017-09-01T00:36:16.009Z,17.86
2017-09-01T00:37:24.844Z,17.95
2017-09-01T00:38:34.002Z,17.87
2017-09-01T00:39:42.829Z,17.89
2017-09-01T00:40:51.655Z,17.87
2017-09-01T00:42:00.483Z,17.79
2017-09-01T00:43:09.312Z,17.77
2017-09-01T00:44:18.145Z,17.79
2017-09-01T00:45:26.978Z,17.77
2017-09-01T00:46:35.808Z,17.77
2017-09-01T00:47:44.632Z,17.78
2017-09-01T00:48:53.466Z,17.75
2017-09-01T00:50:02.300Z,17.75
2017-09-01T00:51:11.456Z,17.72
2017-09-01T00:52:20.285Z,17.7
2017-09-01T00:53:29.111Z,17.72
2017-09-01T00:54:37.944Z,17.77
2017-09-01T00:55:46.780Z,17.77
2017-09-01T00:56:55.617Z,17.77
2017-09-01T00:58:04.442Z,17.77
2017-09-01T00:59:13.272Z,17.79
2017-09-01T01:00:22.103Z,17.77
2017-09-01T01:01:30.934Z,17.79
2017-09-01T01:02:39.767Z,17.74
2017-09-01T01:03:48.595Z,17.66
2017-09-01T01:04:57.425Z,17.7
2017-09-01T01:06:06.253Z,17.75
2017-09-01T01:07:15.089Z,17.71
2017-09-01T01:08:23.914Z,17.66
2017-09-01T01:09:32.746Z,17.74
2017-09-01T01:10:41.573Z,17.7
2017-09-01T01:11:50.404Z,17.66
2017-09-01T01:12:59.236Z,17.64
2017-09-01T01:14:08.069Z,17.71
2017-09-01T01:15:16.899Z,17.68
2017-09-01T01:16:25.728Z,17.75
2017-09-01T01:17:34.560Z,17.7
2017-09-01T01:18:43.393Z,17.63
2017-09-01T01:19:52.222Z,17.71
2017-09-01T01:21:01.052Z,17.68
2017-09-01T01:22:09.879Z,17.75
2017-09-01T01:23:18.712Z,17.7
2017-09-01T01:24:27.544Z,17.74
2017-09-01T01:25:36.376Z,17.64
2017-09-01T01:26:45.201Z,17.64
2017-09-01T01:27:54.031Z,17.63
2017-09-01T01:29:02.860Z,17.62
2017-09-01T01:30:11.694Z,17.59
2017-09-01T01:31:20.523Z,17.63
2017-09-01T01:32:29.354Z,17.58
2017-09-01T01:33:38.184Z,17.62
2017-09-01T01:34:47.014Z,17.54
2017-09-01T01:35:55.848Z,17.54
2017-09-01T01:37:04.675Z,17.62
2017-09-01T01:38:13.502Z,17.54
2017-09-01T01:39:22.329Z,17.59
2017-09-01T01:40:31.163Z,17.54
2017-09-01T01:41:39.992Z,17.54
2017-09-01T01:42:48.825Z,17.55
2017-09-01T01:43:57.650Z,17.51
2017-09-01T01:45:06.806Z,17.55
2017-09-01T01:46:15.642Z,17.46
2017-09-01T01:47:24.795Z,17.49
2017-09-01T01:48:33.626Z,17.52
2017-09-01T01:49:42.459Z,17.4
2017-09-01T01:50:51.290Z,17.43
2017-09-01T01:52:00.124Z,17.41
2017-09-01T01:53:08.952Z,17.4
2017-09-01T01:54:17.786Z,17.34
2017-09-01T01:55:26.609Z,17.34
2017-09-01T01:56:35.442Z,17.33
2017-09-01T01:57:44.264Z,17.41
2017-09-01T01:58:53.096Z,17.36
2017-09-01T02:00:01.926Z,17.37
2017-09-01T02:01:10.758Z,17.36
2017-09-01T02:02:19.584Z,17.4
2017-09-01T02:03:28.412Z,17.37
2017-09-01T02:04:37.249Z,17.41
2017-09-01T02:05:46.073Z,17.4
2017-09-01T02:06:54.905Z,17.44
2017-09-01T02:08:03.737Z,17.41
2017-09-01T02:09:12.568Z,17.46
2017-09-01T02:10:21.398Z,17.4
2017-09-01T02:11:30.232Z,17.46
2017-09-01T02:12:39.057Z,17.43
2017-09-01T02:13:47.886Z,17.41
2017-09-01T02:14:56.721Z,17.44
2017-09-01T02:16:05.548Z,17.43
2017-09-01T02:17:14.378Z,17.41
2017-09-01T02:18:23.210Z,17.46
2017-09-01T02:19:32.038Z,17.43
2017-09-01T02:20:40.876Z,17.46
2017-09-01T02:21:49.704Z,17.41
2017-09-01T02:22:58.535Z,17.37
2017-09-01T02:24:07.360Z,17.36
2017-09-01T02:25:16.191Z,17.36
2017-09-01T02:26:25.020Z,17.3
2017-09-01T02:27:33.854Z,17.37
2017-09-01T02:28:42.690Z,17.31
2017-09-01T02:29:51.518Z,17.25
2017-09-01T02:31:00.349Z,17.25
2017-09-01T02:32:09.177Z,17.33
2017-09-01T02:33:18.001Z,17.31
2017-09-01T02:34:26.834Z,17.3
2017-09-01T02:35:35.663Z,17.3
2017-09-01T02:36:44.491Z,17.18
2017-09-01T02:37:53.322Z,17.19
2017-09-01T02:39:02.152Z,17.19
2017-09-01T02:40:10.985Z,17.22
2017-09-01T02:41:20.136Z,17.18
2017-09-01T02:42:28.972Z,17.21
2017-09-01T02:43:37.804Z,17.14
2017-09-01T02:44:46.631Z,17.19
2017-09-01T02:45:55.465Z,17.15
2017-09-01T02:47:04.625Z,17.12
2017-09-01T02:48:13.786Z,17.19
2017-09-01T02:49:22.616Z,17.16
2017-09-01T02:50:31.447Z,17.18
2017-09-01T02:51:40.276Z,17.12
2017-09-01T02:52:49.102Z,17.11
2017-09-01T02:53:57.937Z,17.07
2017-09-01T02:55:06.766Z,17.12
2017-09-01T02:56:15.600Z,17.14
2017-09-01T02:57:24.427Z,17.07
2017-09-01T02:58:33.250Z,17.12
2017-09-01T02:59:42.085Z,17.07
2017-09-01T03:00:50.912Z,17.04
2017-09-01T03:01:59.736Z,17.07
2017-09-01T03:03:08.566Z,17
2017-09-01T03:04:17.396Z,17.11
2017-09-01T03:05:26.224Z,16.93
2017-09-01T03:06:35.057Z,16.98
2017-09-01T03:07:43.884Z,16.97
2017-09-01T03:08:52.711Z,16.97
2017-09-01T03:10:01.546Z,16.93
2017-09-01T03:11:10.376Z,16.94
2017-09-01T03:12:19.212Z,16.83
2017-09-01T03:13:28.039Z,16.81
2017-09-01T03:14:36.867Z,16.75
2017-09-01T03:15:46.025Z,16.85
2017-09-01T03:16:54.851Z,16.73
2017-09-01T03:18:03.685Z,16.78
2017-09-01T03:19:12.509Z,16.73
2017-09-01T03:20:21.342Z,16.68
2017-09-01T03:21:30.171Z,16.68
2017-09-01T03:22:39.000Z,16.68
2017-09-01T03:23:47.835Z,16.71
2017-09-01T03:24:56.663Z,16.81
2017-09-01T03:26:05.489Z,16.68
2017-09-01T03:27:14.317Z,16.67
2017-09-01T03:28:23.145Z,16.75
2017-09-01T03:29:31.978Z,16.68
2017-09-01T03:30:41.134Z,16.66
2017-09-01T03:31:49.971Z,16.63
2017-09-01T03:32:58.802Z,16.76
2017-09-01T03:34:07.629Z,16.68
2017-09-01T03:35:16.456Z,16.66
2017-09-01T03:36:25.288Z,16.63
2017-09-01T03:37:34.118Z,16.66
2017-09-01T03:38:42.944Z,16.61
2017-09-01T03:39:51.769Z,16.56
2017-09-01T03:41:00.602Z,16.64
2017-09-01T03:42:09.431Z,16.57
2017-09-01T03:43:18.583Z,16.6
2017-09-01T03:44:27.412Z,16.58
2017-09-01T03:45:36.243Z,16.75
2017-09-01T03:46:45.071Z,16.75
2017-09-01T03:47:53.898Z,16.68
2017-09-01T03:49:02.728Z,16.73
2017-09-01T03:50:11.555Z,16.61
2017-09-01T03:51:20.385Z,16.68
2017-09-01T03:52:29.218Z,16.63
2017-09-01T03:53:38.046Z,16.64
2017-09-01T03:54:46.878Z,16.6
2017-09-01T03:55:55.703Z,16.56
2017-09-01T03:57:04.535Z,16.64
2017-09-01T03:58:13.369Z,16.7
2017-09-01T03:59:22.199Z,16.56
2017-09-01T04:00:31.023Z,16.68
2017-09-01T04:01:39.854Z,16.73
2017-09-01T04:02:49.008Z,16.58
2017-09-01T04:03:57.838Z,16.6
2017-09-01T04:05:06.670Z,16.56
2017-09-01T04:06:15.499Z,16.61
2017-09-01T04:07:24.322Z,16.52
2017-09-01T04:08:33.152Z,16.58
2017-09-01T04:09:41.981Z,16.57
2017-09-01T04:10:50.814Z,16.58
2017-09-01T04:11:59.644Z,16.57
2017-09-01T04:13:08.466Z,16.57
2017-09-01T04:14:17.293Z,16.52
2017-09-01T04:15:26.130Z,16.56
2017-09-01T04:16:34.957Z,16.5
2017-09-01T04:17:44.109Z,16.49
2017-09-01T04:18:52.937Z,16.48
2017-09-01T04:20:01.766Z,16.48
2017-09-01T04:21:10.592Z,16.45
2017-09-01T04:22:19.428Z,16.53
2017-09-01T04:23:28.255Z,16.57
2017-09-01T04:24:37.089Z,16.45
2017-09-01T04:25:45.916Z,16.57
2017-09-01T04:26:54.745Z,16.52
2017-09-01T04:28:03.575Z,16.5
2017-09-01T04:29:12.405Z,16.56
2017-09-01T04:30:21.235Z,16.57
2017-09-01T04:31:30.065Z,16.57
2017-09-01T04:32:39.212Z,16.61
2017-09-01T04:33:48.039Z,16.56
2017-09-01T04:34:56.865Z,16.52
2017-09-01T04:36:05.700Z,16.52
2017-09-01T04:37:14.532Z,16.58
2017-09-01T04:38:23.358Z,16.56
2017-09-01T04:39:32.189Z,16.6
2017-09-01T04:40:41.008Z,16.6
2017-09-01T04:41:49.840Z,16.45
2017-09-01T04:42:58.666Z,16.39
2017-09-01T04:44:07.499Z,16.45
2017-09-01T04:45:16.326Z,16.45
2017-09-01T04:46:25.157Z,16.43
2017-09-01T04:47:33.988Z,16.42
2017-09-01T04:48:42.814Z,16.45
2017-09-01T04:49:51.647Z,16.42
2017-09-01T04:51:00.474Z,16.46
2017-09-01T04:52:09.303Z,16.46
2017-09-01T04:53:18.133Z,16.41
2017-09-01T04:54:26.961Z,16.42
2017-09-01T04:55:35.794Z,16.45
2017-09-01T04:56:44.620Z,16.5
2017-09-01T04:57:53.451Z,16.5
2017-09-01T04:59:02.278Z,16.46
2017-09-01T05:00:11.112Z,16.42
2017-09-01T05:01:19.940Z,16.41
2017-09-01T05:02:28.764Z,16.41
2017-09-01T05:03:37.595Z,16.49
2017-09-01T05:04:46.425Z,16.39
2017-09-01T05:05:55.256Z,16.41
2017-09-01T05:07:04.086Z,16.41
2017-09-01T05:08:12.917Z,16.39
2017-09-01T05:09:21.741Z,16.43
2017-09-01T05:10:30.569Z,16.5
2017-09-01T05:11:39.729Z,16.43
2017-09-01T05:12:48.556Z,16.49
2017-09-01T05:13:57.386Z,16.48
2017-09-01T05:15:06.219Z,16.45
2017-09-01T05:16:15.048Z,16.45
2017-09-01T05:17:23.884Z,16.52
2017-09-01T05:18:32.710Z,16.41
2017-09-01T05:19:41.545Z,16.41
2017-09-01T05:20:50.368Z,16.45
2017-09-01T05:21:59.199Z,16.45
2017-09-01T05:23:08.022Z,16.48
2017-09-01T05:24:16.857Z,16.46
2017-09-01T05:25:25.690Z,16.45
2017-09-01T05:26:34.518Z,16.46
2017-09-01T05:27:43.346Z,16.42
2017-09-01T05:28:52.172Z,16.48
2017-09-01T05:30:01.001Z,16.5
2017-09-01T05:31:09.832Z,16.53
2017-09-01T05:32:18.661Z,16.48
2017-09-01T05:33:27.490Z,16.52
2017-09-01T05:34:36.637Z,16.53
2017-09-01T05:35:45.465Z,16.52
2017-09-01T05:36:54.302Z,16.52
2017-09-01T05:38:03.126Z,16.52
2017-09-01T05:39:11.955Z,16.53
2017-09-01T05:40:20.789Z,16.52
2017-09-01T05:41:29.618Z,16.57
2017-09-01T05:42:38.451Z,16.58
2017-09-01T05:43:47.278Z,16.58
2017-09-01T05:44:56.109Z,16.58
2017-09-01T05:46:04.934Z,16.58
2017-09-01T05:47:13.766Z,16.58
2017-09-01T05:48:22.596Z,16.57
2017-09-01T05:49:31.425Z,16.57
2017-09-01T05:50:40.581Z,16.61
2017-09-01T05:51:49.409Z,16.61
2017-09-01T05:52:58.238Z,16.61
2017-09-01T05:54:07.071Z,16.68
2017-09-01T05:55:15.903Z,16.66
2017-09-01T05:56:24.735Z,16.68
2017-09-01T05:57:33.910Z,16.68
2017-09-01T05:58:43.068Z,16.7
2017-09-01T05:59:51.897Z,16.7
2017-09-01T06:01:00.732Z,16.68
2017-09-01T06:02:09.895Z,16.75
2017-09-01T06:03:19.046Z,16.73
2017-09-01T06:04:27.870Z,16.67
2017-09-01T06:05:36.702Z,16.76
2017-09-01T06:06:45.533Z,16.75
2017-09-01T06:07:54.359Z,16.73
2017-09-01T06:09:03.193Z,16.78
2017-09-01T06:10:12.024Z,16.78
2017-09-01T06:11:20.848Z,16.68
2017-09-01T06:12:29.683Z,16.73
2017-09-01T06:13:38.509Z,16.71
2017-09-01T06:14:47.345Z,16.82
2017-09-01T06:15:56.168Z,16.83
2017-09-01T06:17:04.996Z,16.81
2017-09-01T06:18:13.822Z,16.76
2017-09-01T06:19:22.997Z,16.83
2017-09-01T06:20:31.813Z,16.93
2017-09-01T06:21:40.636Z,16.82
2017-09-01T06:22:49.469Z,16.83
2017-09-01T06:23:58.295Z,16.82
2017-09-01T06:25:07.122Z,16.83
2017-09-01T06:26:15.956Z,16.86
2017-09-01T06:27:24.786Z,17
2017-09-01T06:28:33.615Z,17
2017-09-01T06:29:42.443Z,16.98
2017-09-01T06:30:51.270Z,16.97
2017-09-01T06:32:00.429Z,17.01
2017-09-01T06:33:09.259Z,16.94
2017-09-01T06:34:18.095Z,17.03
2017-09-01T06:35:27.245Z,17.16
2017-09-01T06:36:36.078Z,17.18
2017-09-01T06:37:44.903Z,17.14
2017-09-01T06:38:53.734Z,17.12
2017-09-01T06:40:02.568Z,17.12
2017-09-01T06:41:11.395Z,17.19
2017-09-01T06:42:20.222Z,17.22
2017-09-01T06:43:29.052Z,17.15
2017-09-01T06:44:37.882Z,17.18
2017-09-01T06:45:46.715Z,17.25
2017-09-01T06:46:55.547Z,17.3
2017-09-01T06:48:04.379Z,17.3
2017-09-01T06:49:13.205Z,17.16
2017-09-01T06:50:22.359Z,17.19
2017-09-01T06:51:31.187Z,17.19
2017-09-01T06:52:40.021Z,17.26
2017-09-01T06:53:48.852Z,17.23
2017-09-01T06:54:57.680Z,17.26
2017-09-01T06:56:06.510Z,17.36
2017-09-01T06:57:15.342Z,17.43
2017-09-01T06:58:24.172Z,17.46
2017-09-01T06:59:32.999Z,17.48
2017-09-01T07:00:41.827Z,17.49
2017-09-01T07:01:50.662Z,17.49
2017-09-01T07:02:59.489Z,17.58
2017-09-01T07:04:08.317Z,17.56
2017-09-01T07:05:17.149Z,17.62
2017-09-01T07:06:25.982Z,17.55
2017-09-01T07:07:35.130Z,17.63
2017-09-01T07:08:43.960Z,17.59
2017-09-01T07:09:52.795Z,17.66
2017-09-01T07:11:01.622Z,17.72
2017-09-01T07:12:10.452Z,17.72
2017-09-01T07:13:19.275Z,17.7
2017-09-01T07:14:28.112Z,17.64
2017-09-01T07:15:36.947Z,17.59
2017-09-01T07:16:45.774Z,17.62
2017-09-01T07:17:54.604Z,17.59
2017-09-01T07:19:03.434Z,17.58
2017-09-01T07:20:12.262Z,17.56
2017-09-01T07:21:21.093Z,17.7
2017-09-01T07:22:29.928Z,17.62
2017-09-01T07:23:38.752Z,17.74
2017-09-01T07:24:47.594Z,17.7
2017-09-01T07:25:56.414Z,17.72
2017-09-01T07:27:05.247Z,17.66
2017-09-01T07:28:14.075Z,17.68
2017-09-01T07:29:22.901Z,17.78
2017-09-01T07:30:31.732Z,17.74
2017-09-01T07:31:40.564Z,17.75
2017-09-01T07:32:49.398Z,17.86
2017-09-01T07:33:58.549Z,17.86
2017-09-01T07:35:07.381Z,17.9
2017-09-01T07:36:16.207Z,17.86
2017-09-01T07:37:25.040Z,17.82
2017-09-01T07:38:33.874Z,17.93
2017-09-01T07:39:42.701Z,17.93
2017-09-01T07:40:51.531Z,17.96
2017-09-01T07:42:00.360Z,18.02
2017-09-01T07:43:09.195Z,18
2017-09-01T07:44:18.030Z,18.02
2017-09-01T07:45:26.863Z,18.07
2017-09-01T07:46:35.689Z,18.03
2017-09-01T07:47:44.836Z,18.11
2017-09-01T07:48:53.672Z,18.1
2017-09-01T07:50:02.498Z,18.11
2017-09-01T07:51:11.337Z,18.15
2017-09-01T07:52:20.166Z,18.21
2017-09-01T07:53:28.994Z,18.25
2017-09-01T07:54:37.823Z,18.32
2017-09-01T07:55:46.660Z,18.41
2017-09-01T07:56:55.490Z,18.44
2017-09-01T07:58:04.323Z,18.42
2017-09-01T07:59:13.155Z,18.47
2017-09-01T08:00:21.981Z,18.48
2017-09-01T08:01:30.806Z,18.52
2017-09-01T08:02:39.643Z,18.6
2017-09-01T08:03:48.468Z,18.62
2017-09-01T08:04:57.311Z,18.65
2017-09-01T08:06:06.137Z,18.57
2017-09-01T08:07:14.967Z,18.67
2017-09-01T08:08:23.797Z,18.65
2017-09-01T08:09:32.631Z,18.72
2017-09-01T08:10:41.464Z,18.6
2017-09-01T08:11:50.614Z,18.58
2017-09-01T08:12:59.451Z,18.58
2017-09-01T08:14:08.281Z,18.63
2017-09-01T08:15:17.115Z,18.63
2017-09-01T08:16:25.947Z,18.63
2017-09-01T08:17:34.775Z,18.65
2017-09-01T08:18:43.605Z,18.66
2017-09-01T08:19:52.434Z,18.69
2017-09-01T08:21:01.267Z,18.62
2017-09-01T08:22:10.095Z,18.63
2017-09-01T08:23:18.927Z,18.67
2017-09-01T08:24:27.761Z,18.69
2017-09-01T08:25:36.595Z,18.8
2017-09-01T08:26:45.427Z,18.85
2017-09-01T08:27:54.253Z,18.82
2017-09-01T08:29:03.080Z,18.84
2017-09-01T08:30:11.914Z,18.91
2017-09-01T08:31:20.744Z,18.88
2017-09-01T08:32:29.575Z,18.98
2017-09-01T08:33:38.406Z,18.88
2017-09-01T08:34:47.237Z,18.85
2017-09-01T08:35:56.074Z,18.91
2017-09-01T08:37:04.904Z,18.84
2017-09-01T08:38:13.738Z,18.92
2017-09-01T08:39:22.568Z,18.91
2017-09-01T08:40:31.395Z,18.95
2017-09-01T08:41:40.224Z,19.06
2017-09-01T08:42:49.052Z,18.98
2017-09-01T08:43:57.885Z,19.02
2017-09-01T08:45:06.713Z,19
2017-09-01T08:46:15.548Z,19.14
2017-09-01T08:47:24.373Z,19.14
2017-09-01T08:48:33.208Z,19.14
2017-09-01T08:49:42.036Z,19.19
2017-09-01T08:50:50.868Z,19.32
2017-09-01T08:51:59.701Z,19.31
2017-09-01T08:53:08.533Z,19.32
2017-09-01T08:54:17.360Z,19.37
2017-09-01T08:55:26.199Z,19.47
2017-09-01T08:56:35.028Z,19.43
2017-09-01T08:57:43.860Z,19.48
2017-09-01T08:58:52.699Z,19.5
2017-09-01T09:00:01.861Z,19.56
2017-09-01T09:01:10.685Z,19.51
2017-09-01T09:02:19.519Z,19.63
2017-09-01T09:03:28.347Z,19.58
2017-09-01T09:04:37.182Z,19.54
2017-09-01T09:05:46.015Z,19.48
2017-09-01T09:06:54.843Z,19.58
2017-09-01T09:08:03.674Z,19.61
2017-09-01T09:09:12.505Z,19.61
2017-09-01T09:10:21.331Z,19.71
2017-09-01T09:11:30.167Z,19.65
2017-09-01T09:12:39.002Z,19.65
2017-09-01T09:13:47.830Z,19.71
2017-09-01T09:14:56.662Z,19.68
2017-09-01T09:16:05.500Z,19.68
2017-09-01T09:17:14.331Z,19.76
2017-09-01T09:18:23.165Z,19.78
2017-09-01T09:19:31.996Z,19.74
2017-09-01T09:20:40.829Z,19.76
2017-09-01T09:21:49.986Z,19.73
2017-09-01T09:22:58.820Z,19.65
2017-09-01T09:24:07.650Z,19.74
2017-09-01T09:25:16.485Z,19.66
2017-09-01T09:26:25.314Z,19.66
2017-09-01T09:27:34.148Z,19.66
2017-09-01T09:28:42.981Z,19.68
2017-09-01T09:29:51.811Z,19.66
2017-09-01T09:31:00.640Z,19.74
2017-09-01T09:32:09.481Z,19.74
2017-09-01T09:33:18.303Z,19.69
2017-09-01T09:34:27.135Z,19.65
2017-09-01T09:35:35.973Z,19.66
2017-09-01T09:36:44.801Z,19.65
2017-09-01T09:37:53.628Z,19.77
2017-09-01T09:39:02.463Z,19.76
2017-09-01T09:40:11.292Z,19.78
2017-09-01T09:41:20.136Z,19.69
2017-09-01T09:42:28.967Z,19.84
2017-09-01T09:43:37.798Z,19.74
2017-09-01T09:44:46.629Z,19.84
2017-09-01T09:45:55.462Z,19.87
2017-09-01T09:47:04.296Z,19.91
2017-09-01T09:48:13.134Z,19.88
2017-09-01T09:49:21.969Z,20.05
2017-09-01T09:50:30.798Z,20.02
2017-09-01T09:51:39.626Z,19.98
2017-09-01T09:52:48.465Z,19.96
2017-09-01T09:53:57.292Z,19.98
2017-09-01T09:55:06.130Z,20.06
2017-09-01T09:56:14.959Z,20.01
2017-09-01T09:57:23.789Z,20.05
2017-09-01T09:58:32.623Z,20.1
2017-09-01T09:59:41.777Z,20.17
2017-09-01T10:00:50.940Z,20.21
2017-09-01T10:01:59.773Z,20.16
2017-09-01T10:03:08.605Z,20.2
2017-09-01T10:04:17.429Z,20.28
2017-09-01T10:05:26.264Z,20.31
2017-09-01T10:06:35.097Z,20.33
2017-09-01T10:07:43.928Z,20.31
2017-09-01T10:08:52.762Z,20.33
2017-09-01T10:10:01.595Z,20.29
2017-09-01T10:11:10.432Z,20.38
2017-09-01T10:12:19.261Z,20.42
2017-09-01T10:13:28.093Z,20.42
2017-09-01T10:14:36.929Z,20.48
2017-09-01T10:15:45.760Z,20.5
2017-09-01T10:16:54.593Z,20.48
2017-09-01T10:18:03.429Z,20.54
2017-09-01T10:19:12.262Z,20.47
2017-09-01T10:20:21.096Z,20.51
2017-09-01T10:21:29.924Z,20.51
2017-09-01T10:22:38.758Z,20.5
2017-09-01T10:23:47.592Z,20.43
2017-09-01T10:24:56.425Z,20.51
2017-09-01T10:26:05.262Z,20.51
2017-09-01T10:27:14.417Z,20.51
2017-09-01T10:28:23.253Z,20.47
2017-09-01T10:29:32.082Z,20.43
2017-09-01T10:30:40.917Z,20.48
2017-09-01T10:31:49.751Z,20.5
2017-09-01T10:32:58.581Z,20.52
2017-09-01T10:34:07.414Z,20.47
2017-09-01T10:35:16.246Z,20.51
2017-09-01T10:36:25.081Z,20.47
2017-09-01T10:37:33.910Z,20.52
2017-09-01T10:38:42.747Z,20.47
2017-09-01T10:39:51.574Z,20.5
2017-09-01T10:41:00.410Z,20.41
2017-09-01T10:42:09.246Z,20.42
2017-09-01T10:43:18.079Z,20.47
2017-09-01T10:44:26.912Z,20.39
2017-09-01T10:45:35.743Z,20.47
2017-09-01T10:46:44.577Z,20.43
2017-09-01T10:47:53.410Z,20.32
2017-09-01T10:49:02.244Z,20.28
2017-09-01T10:50:11.080Z,20.24
2017-09-01T10:51:19.908Z,20.17
2017-09-01T10:52:28.740Z,20.14
2017-09-01T10:53:37.568Z,20.17
2017-09-01T10:54:46.403Z,20.1
2017-09-01T10:55:55.240Z,20.01
2017-09-01T10:57:04.072Z,20.06
2017-09-01T10:58:12.906Z,20.06
2017-09-01T10:59:21.769Z,20.11
2017-09-01T11:00:30.567Z,20.02
2017-09-01T11:01:39.401Z,19.99
2017-09-01T11:02:48.236Z,19.98
2017-09-01T11:03:57.064Z,19.99
2017-09-01T11:05:05.893Z,19.96
2017-09-01T11:06:14.729Z,19.99
2017-09-01T11:07:23.559Z,19.99
2017-09-01T11:08:32.394Z,19.86
2017-09-01T11:09:41.225Z,19.98
2017-09-01T11:10:50.054Z,19.81
2017-09-01T11:11:58.883Z,19.92
2017-09-01T11:13:07.716Z,19.88
2017-09-01T11:14:16.549Z,19.88
2017-09-01T11:15:25.376Z,19.91
2017-09-01T11:16:34.212Z,19.87
2017-09-01T11:17:43.368Z,19.81
2017-09-01T11:18:52.195Z,19.84
2017-09-01T11:20:01.027Z,19.83
2017-09-01T11:21:09.865Z,19.77
2017-09-01T11:22:19.017Z,19.77
2017-09-01T11:23:27.851Z,19.74
2017-09-01T11:24:36.675Z,19.8
2017-09-01T11:25:45.508Z,19.77
2017-09-01T11:26:54.343Z,19.81
2017-09-01T11:28:03.175Z,19.8
2017-09-01T11:29:12.007Z,19.83
2017-09-01T11:30:20.844Z,19.76
2017-09-01T11:31:29.675Z,19.8
2017-09-01T11:32:38.827Z,19.76
2017-09-01T11:33:47.663Z,19.77
2017-09-01T11:34:56.493Z,19.71
2017-09-01T11:36:05.322Z,19.73
2017-09-01T11:37:14.156Z,19.74
2017-09-01T11:38:22.987Z,19.73
2017-09-01T11:39:31.820Z,19.77
2017-09-01T11:40:40.649Z,19.77
2017-09-01T11:41:49.481Z,19.68
2017-09-01T11:42:58.312Z,19.68
2017-09-01T11:44:07.147Z,19.78
2017-09-01T11:45:15.972Z,19.76
2017-09-01T11:46:24.804Z,19.78
2017-09-01T11:47:33.636Z,19.83
2017-09-01T11:48:42.464Z,19.76
2017-09-01T11:49:51.297Z,19.78
2017-09-01T11:51:00.125Z,19.74
2017-09-01T11:52:08.963Z,19.76
2017-09-01T11:53:17.793Z,19.77
2017-09-01T11:54:26.628Z,19.81
2017-09-01T11:55:35.461Z,19.77
2017-09-01T11:56:44.292Z,19.76
2017-09-01T11:57:53.123Z,19.78
2017-09-01T11:59:01.957Z,19.81
2017-09-01T12:00:10.787Z,19.8
2017-09-01T12:01:19.616Z,19.69
2017-09-01T12:02:28.455Z,19.71
2017-09-01T12:03:37.287Z,19.78
2017-09-01T12:04:46.117Z,19.71
2017-09-01T12:05:54.951Z,19.71
2017-09-01T12:07:03.781Z,19.71
2017-09-01T12:08:12.618Z,19.68
2017-09-01T12:09:21.448Z,19.76
2017-09-01T12:10:30.275Z,19.65
2017-09-01T12:11:39.113Z,19.68
2017-09-01T12:12:47.941Z,19.65
2017-09-01T12:13:56.773Z,19.63
2017-09-01T12:15:05.608Z,19.63
2017-09-01T12:16:14.767Z,19.65
2017-09-01T12:17:23.595Z,19.56
2017-09-01T12:18:32.753Z,19.61
2017-09-01T12:19:41.584Z,19.62
2017-09-01T12:20:50.415Z,19.56
2017-09-01T12:21:59.246Z,19.63
2017-09-01T12:23:08.082Z,19.62
2017-09-01T12:24:16.917Z,19.63
2017-09-01T12:25:25.742Z,19.76
2017-09-01T12:26:34.574Z,19.71
2017-09-01T12:27:43.402Z,19.71
2017-09-01T12:28:52.238Z,19.71
2017-09-01T12:30:01.070Z,19.74
2017-09-01T12:31:09.900Z,19.68
2017-09-01T12:32:18.729Z,19.73
2017-09-01T12:33:27.888Z,19.61
2017-09-01T12:34:36.743Z,19.63
2017-09-01T12:35:45.906Z,19.65
2017-09-01T12:36:54.745Z,19.69
2017-09-01T12:38:03.572Z,19.65
2017-09-01T12:39:12.405Z,19.66
2017-09-01T12:40:21.237Z,19.65
2017-09-01T12:41:30.075Z,19.69
2017-09-01T12:42:38.904Z,19.71
2017-09-01T12:43:47.739Z,19.74
2017-09-01T12:44:56.569Z,19.69
2017-09-01T12:46:05.399Z,19.63
2017-09-01T12:47:14.234Z,19.65
2017-09-01T12:48:23.062Z,19.73
2017-09-01T12:49:31.891Z,19.63
2017-09-01T12:50:40.722Z,19.61
2017-09-01T12:51:49.556Z,19.66
2017-09-01T12:52:58.388Z,19.69
2017-09-01T12:54:07.217Z,19.58
2017-09-01T12:55:16.050Z,19.59
2017-09-01T12:56:24.876Z,19.63
2017-09-01T12:57:33.713Z,19.61
2017-09-01T12:58:42.540Z,19.62
2017-09-01T12:59:51.371Z,19.56
2017-09-01T13:01:00.531Z,19.61
2017-09-01T13:02:09.363Z,19.59
2017-09-01T13:03:18.199Z,19.54
2017-09-01T13:04:27.029Z,19.56
2017-09-01T13:05:35.863Z,19.56
2017-09-01T13:06:44.690Z,19.55
2017-09-01T13:07:53.529Z,19.51
2017-09-01T13:09:02.690Z,19.48
2017-09-01T13:10:11.521Z,19.48
2017-09-01T13:11:20.677Z,19.54
2017-09-01T13:12:29.512Z,19.5
2017-09-01T13:13:38.342Z,19.44
2017-09-01T13:14:47.176Z,19.51
2017-09-01T13:15:56.008Z,19.48
2017-09-01T13:17:04.846Z,19.56
2017-09-01T13:18:13.679Z,19.51
2017-09-01T13:19:22.509Z,19.58
2017-09-01T13:20:31.664Z,19.5
2017-09-01T13:21:40.491Z,19.5
2017-09-01T13:22:49.321Z,19.54
2017-09-01T13:23:58.154Z,19.5
2017-09-01T13:25:06.990Z,19.48
2017-09-01T13:26:15.822Z,19.5
2017-09-01T13:27:24.652Z,19.37
2017-09-01T13:28:33.482Z,19.5
2017-09-01T13:29:42.309Z,19.47
2017-09-01T13:30:51.145Z,19.39
2017-09-01T13:31:59.981Z,19.4
2017-09-01T13:33:08.813Z,19.4
2017-09-01T13:34:17.648Z,19.41
2017-09-01T13:35:26.474Z,19.39
2017-09-01T13:36:35.308Z,19.47
2017-09-01T13:37:44.140Z,19.5
2017-09-01T13:38:52.976Z,19.5
2017-09-01T13:40:01.807Z,19.41
2017-09-01T13:41:10.635Z,19.41
2017-09-01T13:42:19.468Z,19.39
2017-09-01T13:43:28.298Z,19.56
2017-09-01T13:44:37.138Z,19.46
2017-09-01T13:45:45.967Z,19.46
2017-09-01T13:46:54.799Z,19.47
2017-09-01T13:48:03.955Z,19.46
2017-09-01T13:49:12.790Z,19.5
2017-09-01T13:50:21.618Z,19.47
2017-09-01T13:51:30.451Z,19.46
2017-09-01T13:52:39.287Z,19.48
2017-09-01T13:53:48.119Z,19.5
2017-09-01T13:54:56.956Z,19.55
2017-09-01T13:56:05.786Z,19.5
2017-09-01T13:57:14.620Z,19.54
2017-09-01T13:58:23.447Z,19.55
2017-09-01T13:59:32.283Z,19.47
2017-09-01T14:00:41.110Z,19.55
2017-09-01T14:01:49.940Z,19.56
2017-09-01T14:02:58.773Z,19.54
2017-09-01T14:04:07.602Z,19.55
2017-09-01T14:05:16.436Z,19.59
2017-09-01T14:06:25.269Z,19.58
2017-09-01T14:07:34.105Z,19.58
2017-09-01T14:08:43.257Z,19.55
2017-09-01T14:09:52.087Z,19.51
2017-09-01T14:11:00.916Z,19.54
2017-09-01T14:12:09.748Z,19.47
2017-09-01T14:13:18.594Z,19.58
2017-09-01T14:14:27.742Z,19.56
2017-09-01T14:15:36.573Z,19.55
2017-09-01T14:16:45.404Z,19.5
2017-09-01T14:17:54.237Z,19.5
2017-09-01T14:19:03.070Z,19.44
2017-09-01T14:20:11.910Z,19.51
2017-09-01T14:21:20.729Z,19.41
2017-09-01T14:22:29.889Z,19.47
2017-09-01T14:23:38.720Z,19.41
2017-09-01T14:24:47.548Z,19.44
2017-09-01T14:25:56.382Z,19.43
2017-09-01T14:27:05.213Z,19.46
2017-09-01T14:28:14.047Z,19.39
2017-09-01T14:29:22.877Z,19.37
2017-09-01T14:30:31.706Z,19.39
2017-09-01T14:31:40.543Z,19.37
2017-09-01T14:32:49.371Z,19.41
2017-09-01T14:33:58.204Z,19.39
2017-09-01T14:35:07.037Z,19.29
2017-09-01T14:36:15.867Z,19.33
2017-09-01T14:37:24.697Z,19.28
2017-09-01T14:38:33.533Z,19.31
2017-09-01T14:39:42.369Z,19.25
2017-09-01T14:40:51.198Z,19.25
2017-09-01T14:42:00.030Z,19.22
2017-09-01T14:43:08.856Z,19.29
2017-09-01T14:44:17.694Z,19.29
2017-09-01T14:45:26.527Z,19.21
2017-09-01T14:46:35.354Z,19.26
2017-09-01T14:47:44.191Z,19.28
2017-09-01T14:48:53.018Z,19.22
2017-09-01T14:50:01.849Z,19.16